sensor_id;sensor_type;location;lat;lon;timestamp;temperature;humidity
75457;SHT31;64036;48.266;14.192;2022-10-10T00:00:42;10.20;70.01
75457;SHT31;64036;48.266;14.192;2022-10-10T00:03:08;10.20;70.01
75457;SHT31;64036;48.266;14.192;2022-10-10T00:05:34;10.20;70.01
75457;SHT31;64036;48.266;14.192;2022-10-10T00:08:02;10.17;70.04
75457;SHT31;64036;48.266;14.192;2022-10-10T00:10:29;10.18;70.07
75457;SHT31;64036;48.266;14.192;2022-10-10T00:12:54;10.18;70.08
75457;SHT31;64036;48.266;14.192;2022-10-10T00:15:20;10.17;70.10
75457;SHT31;64036;48.266;14.192;2022-10-10T00:17:46;10.16;70.14
75457;SHT31;64036;48.266;14.192;2022-10-10T00:20:13;10.15;70.20
75457;SHT31;64036;48.266;14.192;2022-10-10T00:22:41;10.14;70.20
75457;SHT31;64036;48.266;14.192;2022-10-10T00:25:07;10.10;70.31
75457;SHT31;64036;48.266;14.192;2022-10-10T00:27:34;10.05;70.42
75457;SHT31;64036;48.266;14.192;2022-10-10T00:30:01;9.99;70.54
75457;SHT31;64036;48.266;14.192;2022-10-10T00:32:29;9.97;70.60
75457;SHT31;64036;48.266;14.192;2022-10-10T00:34:54;9.94;70.70
75457;SHT31;64036;48.266;14.192;2022-10-10T00:37:20;9.91;70.70
75457;SHT31;64036;48.266;14.192;2022-10-10T00:39:45;9.88;70.80
75457;SHT31;64036;48.266;14.192;2022-10-10T00:42:12;9.88;70.83
75457;SHT31;64036;48.266;14.192;2022-10-10T00:44:40;9.88;70.92
75457;SHT31;64036;48.266;14.192;2022-10-10T00:47:08;9.87;70.96
75457;SHT31;64036;48.266;14.192;2022-10-10T00:49:34;9.86;71.03
75457;SHT31;64036;48.266;14.192;2022-10-10T00:52:04;9.83;71.20
75457;SHT31;64036;48.266;14.192;2022-10-10T00:54:31;9.79;71.21
75457;SHT31;64036;48.266;14.192;2022-10-10T00:56:59;9.77;71.30
75457;SHT31;64036;48.266;14.192;2022-10-10T00:59:38;9.77;71.39
75457;SHT31;64036;48.266;14.192;2022-10-10T01:02:07;9.77;71.38
75457;SHT31;64036;48.266;14.192;2022-10-10T01:07:09;9.73;71.42
75457;SHT31;64036;48.266;14.192;2022-10-10T01:09:40;9.65;71.53
75457;SHT31;64036;48.266;14.192;2022-10-10T01:14:55;9.57;71.73
75457;SHT31;64036;48.266;14.192;2022-10-10T01:17:32;9.49;72.12
75457;SHT31;64036;48.266;14.192;2022-10-10T01:29:37;9.28;72.63
75457;SHT31;64036;48.266;14.192;2022-10-10T01:32:12;9.22;72.82
75457;SHT31;64036;48.266;14.192;2022-10-10T01:37:52;9.06;73.21
75457;SHT31;64036;48.266;14.192;2022-10-10T01:40:43;8.97;73.50
75457;SHT31;64036;48.266;14.192;2022-10-10T01:43:25;8.92;73.75
75457;SHT31;64036;48.266;14.192;2022-10-10T01:45:51;8.86;73.90
75457;SHT31;64036;48.266;14.192;2022-10-10T01:48:19;8.84;73.96
75457;SHT31;64036;48.266;14.192;2022-10-10T01:56:12;8.81;74.38
75457;SHT31;64036;48.266;14.192;2022-10-10T01:59:21;8.81;74.48
75457;SHT31;64036;48.266;14.192;2022-10-10T02:02:03;8.78;74.55
75457;SHT31;64036;48.266;14.192;2022-10-10T02:04:51;8.78;74.67
75457;SHT31;64036;48.266;14.192;2022-10-10T02:07:25;8.77;74.75
75457;SHT31;64036;48.266;14.192;2022-10-10T02:09:59;8.78;74.86
75457;SHT31;64036;48.266;14.192;2022-10-10T02:12:29;8.78;74.87
75457;SHT31;64036;48.266;14.192;2022-10-10T02:14:57;8.79;74.94
75457;SHT31;64036;48.266;14.192;2022-10-10T02:17:30;8.79;74.99
75457;SHT31;64036;48.266;14.192;2022-10-10T02:20:00;8.81;75.04
75457;SHT31;64036;48.266;14.192;2022-10-10T02:22:26;8.82;75.14
75457;SHT31;64036;48.266;14.192;2022-10-10T02:24:54;8.78;75.29
75457;SHT31;64036;48.266;14.192;2022-10-10T02:27:22;8.72;75.57
75457;SHT31;64036;48.266;14.192;2022-10-10T02:29:57;8.71;75.56
75457;SHT31;64036;48.266;14.192;2022-10-10T02:32:27;8.73;75.50
75457;SHT31;64036;48.266;14.192;2022-10-10T02:35:12;8.74;75.58
75457;SHT31;64036;48.266;14.192;2022-10-10T02:37:43;8.73;75.74
75457;SHT31;64036;48.266;14.192;2022-10-10T02:40:11;8.71;76.01
75457;SHT31;64036;48.266;14.192;2022-10-10T02:42:43;8.66;76.21
75457;SHT31;64036;48.266;14.192;2022-10-10T02:45:09;8.65;76.29
75457;SHT31;64036;48.266;14.192;2022-10-10T02:47:35;8.68;76.26
75457;SHT31;64036;48.266;14.192;2022-10-10T02:50:01;8.69;76.22
75457;SHT31;64036;48.266;14.192;2022-10-10T02:52:27;8.74;76.14
75457;SHT31;64036;48.266;14.192;2022-10-10T02:54:53;8.80;76.05
75457;SHT31;64036;48.266;14.192;2022-10-10T02:57:19;8.85;75.98
75457;SHT31;64036;48.266;14.192;2022-10-10T02:59:44;8.89;76.01
75457;SHT31;64036;48.266;14.192;2022-10-10T03:02:10;8.92;76.01
75457;SHT31;64036;48.266;14.192;2022-10-10T03:04:36;8.95;75.92
75457;SHT31;64036;48.266;14.192;2022-10-10T03:07:02;8.99;75.81
75457;SHT31;64036;48.266;14.192;2022-10-10T03:09:28;9.02;75.77
75457;SHT31;64036;48.266;14.192;2022-10-10T03:11:54;9.04;75.80
75457;SHT31;64036;48.266;14.192;2022-10-10T03:14:20;9.07;75.76
75457;SHT31;64036;48.266;14.192;2022-10-10T03:16:45;9.08;75.63
75457;SHT31;64036;48.266;14.192;2022-10-10T03:19:11;9.08;75.61
75457;SHT31;64036;48.266;14.192;2022-10-10T03:21:37;9.06;75.61
75457;SHT31;64036;48.266;14.192;2022-10-10T03:24:03;9.07;75.66
75457;SHT31;64036;48.266;14.192;2022-10-10T03:26:30;9.05;75.70
75457;SHT31;64036;48.266;14.192;2022-10-10T03:28:56;8.99;75.87
75457;SHT31;64036;48.266;14.192;2022-10-10T03:31:22;8.97;75.91
75457;SHT31;64036;48.266;14.192;2022-10-10T03:33:48;8.99;75.90
75457;SHT31;64036;48.266;14.192;2022-10-10T03:36:13;9.00;75.90
75457;SHT31;64036;48.266;14.192;2022-10-10T03:38:39;8.99;75.91
75457;SHT31;64036;48.266;14.192;2022-10-10T03:41:05;8.96;75.99
75457;SHT31;64036;48.266;14.192;2022-10-10T03:43:31;8.94;76.07
75457;SHT31;64036;48.266;14.192;2022-10-10T03:45:57;8.92;76.09
75457;SHT31;64036;48.266;14.192;2022-10-10T03:48:22;8.89;76.24
75457;SHT31;64036;48.266;14.192;2022-10-10T03:50:48;8.86;76.37
75457;SHT31;64036;48.266;14.192;2022-10-10T03:53:14;8.78;76.56
75457;SHT31;64036;48.266;14.192;2022-10-10T03:55:40;8.74;76.74
75457;SHT31;64036;48.266;14.192;2022-10-10T03:58:07;8.72;76.92
75457;SHT31;64036;48.266;14.192;2022-10-10T04:00:34;8.68;77.06
75457;SHT31;64036;48.266;14.192;2022-10-10T04:03:00;8.66;77.14
75457;SHT31;64036;48.266;14.192;2022-10-10T04:05:33;8.61;77.35
75457;SHT31;64036;48.266;14.192;2022-10-10T04:08:01;8.58;77.49
75457;SHT31;64036;48.266;14.192;2022-10-10T04:10:27;8.55;77.60
75457;SHT31;64036;48.266;14.192;2022-10-10T04:12:53;8.53;77.62
75457;SHT31;64036;48.266;14.192;2022-10-10T04:15:19;8.53;77.72
75457;SHT31;64036;48.266;14.192;2022-10-10T04:17:45;8.51;77.94
75457;SHT31;64036;48.266;14.192;2022-10-10T04:20:11;8.46;78.09
75457;SHT31;64036;48.266;14.192;2022-10-10T04:22:37;8.43;78.21
75457;SHT31;64036;48.266;14.192;2022-10-10T04:25:02;8.42;78.10
75457;SHT31;64036;48.266;14.192;2022-10-10T04:27:28;8.41;78.16
75457;SHT31;64036;48.266;14.192;2022-10-10T04:29:54;8.42;78.15
75457;SHT31;64036;48.266;14.192;2022-10-10T04:32:19;8.41;78.10
75457;SHT31;64036;48.266;14.192;2022-10-10T04:34:45;8.42;78.10
75457;SHT31;64036;48.266;14.192;2022-10-10T04:37:10;8.43;78.10
75457;SHT31;64036;48.266;14.192;2022-10-10T04:39:36;8.41;78.10
75457;SHT31;64036;48.266;14.192;2022-10-10T04:42:01;8.35;78.26
75457;SHT31;64036;48.266;14.192;2022-10-10T04:44:27;8.33;78.26
75457;SHT31;64036;48.266;14.192;2022-10-10T04:46:53;8.32;78.21
75457;SHT31;64036;48.266;14.192;2022-10-10T04:49:18;8.32;78.21
75457;SHT31;64036;48.266;14.192;2022-10-10T04:51:44;8.30;78.19
75457;SHT31;64036;48.266;14.192;2022-10-10T04:54:10;8.26;78.21
75457;SHT31;64036;48.266;14.192;2022-10-10T04:56:35;8.22;78.29
75457;SHT31;64036;48.266;14.192;2022-10-10T04:59:01;8.19;78.29
75457;SHT31;64036;48.266;14.192;2022-10-10T05:01:27;8.14;78.25
75457;SHT31;64036;48.266;14.192;2022-10-10T05:03:53;8.06;78.50
75457;SHT31;64036;48.266;14.192;2022-10-10T05:06:18;8.01;78.61
75457;SHT31;64036;48.266;14.192;2022-10-10T05:08:44;8.00;78.69
75457;SHT31;64036;48.266;14.192;2022-10-10T05:11:10;7.99;78.70
75457;SHT31;64036;48.266;14.192;2022-10-10T05:13:35;8.01;78.70
75457;SHT31;64036;48.266;14.192;2022-10-10T05:16:01;7.99;78.69
75457;SHT31;64036;48.266;14.192;2022-10-10T05:18:27;7.96;78.80
75457;SHT31;64036;48.266;14.192;2022-10-10T05:20:53;7.95;78.80
75457;SHT31;64036;48.266;14.192;2022-10-10T05:23:18;7.96;78.83
75457;SHT31;64036;48.266;14.192;2022-10-10T05:25:46;7.98;78.89
75457;SHT31;64036;48.266;14.192;2022-10-10T05:28:13;7.97;78.95
75457;SHT31;64036;48.266;14.192;2022-10-10T05:30:39;7.97;79.00
75457;SHT31;64036;48.266;14.192;2022-10-10T05:33:05;7.99;79.00
75457;SHT31;64036;48.266;14.192;2022-10-10T05:35:30;8.03;79.00
75457;SHT31;64036;48.266;14.192;2022-10-10T05:37:56;8.08;79.00
75457;SHT31;64036;48.266;14.192;2022-10-10T05:40:22;8.13;78.93
75457;SHT31;64036;48.266;14.192;2022-10-10T05:42:48;8.20;78.86
75457;SHT31;64036;48.266;14.192;2022-10-10T05:45:14;8.27;78.74
75457;SHT31;64036;48.266;14.192;2022-10-10T05:47:40;8.28;78.66
75457;SHT31;64036;48.266;14.192;2022-10-10T05:50:06;8.33;78.81
75457;SHT31;64036;48.266;14.192;2022-10-10T05:53:00;8.59;78.75
75457;SHT31;64036;48.266;14.192;2022-10-10T05:55:26;9.11;78.31
75457;SHT31;64036;48.266;14.192;2022-10-10T05:57:52;9.77;77.73
75457;SHT31;64036;48.266;14.192;2022-10-10T06:00:17;10.40;77.16
75457;SHT31;64036;48.266;14.192;2022-10-10T06:02:43;11.07;76.49
75457;SHT31;64036;48.266;14.192;2022-10-10T06:05:09;11.73;75.43
75457;SHT31;64036;48.266;14.192;2022-10-10T06:07:35;12.36;74.09
75457;SHT31;64036;48.266;14.192;2022-10-10T06:10:02;12.95;72.72
75457;SHT31;64036;48.266;14.192;2022-10-10T06:12:29;13.65;71.33
75457;SHT31;64036;48.266;14.192;2022-10-10T06:14:57;14.43;69.78
75457;SHT31;64036;48.266;14.192;2022-10-10T06:17:22;15.14;67.86
75457;SHT31;64036;48.266;14.192;2022-10-10T06:19:48;15.77;66.57
75457;SHT31;64036;48.266;14.192;2022-10-10T06:22:13;16.32;64.67
75457;SHT31;64036;48.266;14.192;2022-10-10T06:24:39;16.80;63.13
75457;SHT31;64036;48.266;14.192;2022-10-10T06:27:04;17.17;62.24
75457;SHT31;64036;48.266;14.192;2022-10-10T06:29:30;17.49;61.17
75457;SHT31;64036;48.266;14.192;2022-10-10T06:31:56;17.73;59.81
75457;SHT31;64036;48.266;14.192;2022-10-10T06:34:21;17.98;59.04
75457;SHT31;64036;48.266;14.192;2022-10-10T06:36:50;18.31;57.92
75457;SHT31;64036;48.266;14.192;2022-10-10T06:39:16;18.77;57.06
75457;SHT31;64036;48.266;14.192;2022-10-10T06:41:42;19.41;55.75
75457;SHT31;64036;48.266;14.192;2022-10-10T06:44:08;20.06;53.97
75457;SHT31;64036;48.266;14.192;2022-10-10T06:46:34;20.63;52.40
75457;SHT31;64036;48.266;14.192;2022-10-10T06:49:04;21.15;50.83
75457;SHT31;64036;48.266;14.192;2022-10-10T06:51:30;21.70;49.52
75457;SHT31;64036;48.266;14.192;2022-10-10T06:53:57;22.28;47.81
75457;SHT31;64036;48.266;14.192;2022-10-10T06:56:23;22.73;46.48
75457;SHT31;64036;48.266;14.192;2022-10-10T06:58:49;23.18;45.12
75457;SHT31;64036;48.266;14.192;2022-10-10T07:01:21;23.60;44.06
75457;SHT31;64036;48.266;14.192;2022-10-10T07:03:48;23.95;43.21
75457;SHT31;64036;48.266;14.192;2022-10-10T07:06:14;24.45;42.60
75457;SHT31;64036;48.266;14.192;2022-10-10T07:08:40;25.10;41.64
75457;SHT31;64036;48.266;14.192;2022-10-10T07:11:07;25.57;40.34
75457;SHT31;64036;48.266;14.192;2022-10-10T07:13:34;25.80;39.53
75457;SHT31;64036;48.266;14.192;2022-10-10T07:16:00;26.10;38.92
75457;SHT31;64036;48.266;14.192;2022-10-10T07:21:02;26.77;36.99
75457;SHT31;64036;48.266;14.192;2022-10-10T07:23:29;26.70;36.15
75457;SHT31;64036;48.266;14.192;2022-10-10T07:25:58;26.56;36.25
75457;SHT31;64036;48.266;14.192;2022-10-10T07:28:26;26.64;36.34
75457;SHT31;64036;48.266;14.192;2022-10-10T07:30:56;26.94;35.82
75457;SHT31;64036;48.266;14.192;2022-10-10T07:33:25;27.17;35.35
75457;SHT31;64036;48.266;14.192;2022-10-10T07:35:55;27.25;34.74
75457;SHT31;64036;48.266;14.192;2022-10-10T07:38:21;27.24;34.95
75457;SHT31;64036;48.266;14.192;2022-10-10T07:40:46;27.26;34.98
75457;SHT31;64036;48.266;14.192;2022-10-10T07:43:12;27.40;34.51
75457;SHT31;64036;48.266;14.192;2022-10-10T07:45:38;27.68;34.20
75457;SHT31;64036;48.266;14.192;2022-10-10T07:48:04;27.73;34.16
75457;SHT31;64036;48.266;14.192;2022-10-10T07:50:29;27.68;34.02
75457;SHT31;64036;48.266;14.192;2022-10-10T07:52:55;27.57;34.37
75457;SHT31;64036;48.266;14.192;2022-10-10T07:55:20;27.46;34.11
75457;SHT31;64036;48.266;14.192;2022-10-10T07:57:46;27.35;33.59
75457;SHT31;64036;48.266;14.192;2022-10-10T08:00:13;27.31;33.76
75457;SHT31;64036;48.266;14.192;2022-10-10T08:02:39;27.28;33.91
75457;SHT31;64036;48.266;14.192;2022-10-10T08:05:05;27.31;34.01
75457;SHT31;64036;48.266;14.192;2022-10-10T08:07:31;27.30;33.57
75457;SHT31;64036;48.266;14.192;2022-10-10T08:09:56;27.35;33.64
75457;SHT31;64036;48.266;14.192;2022-10-10T08:12:22;27.48;33.84
75457;SHT31;64036;48.266;14.192;2022-10-10T08:14:48;27.50;33.83
75457;SHT31;64036;48.266;14.192;2022-10-10T08:17:13;27.67;33.32
75457;SHT31;64036;48.266;14.192;2022-10-10T08:19:39;27.80;33.47
75457;SHT31;64036;48.266;14.192;2022-10-10T08:22:04;27.86;33.29
75457;SHT31;64036;48.266;14.192;2022-10-10T08:24:30;27.73;33.67
75457;SHT31;64036;48.266;14.192;2022-10-10T08:26:56;27.85;33.48
75457;SHT31;64036;48.266;14.192;2022-10-10T08:29:22;27.85;33.57
75457;SHT31;64036;48.266;14.192;2022-10-10T08:31:48;27.72;33.48
75457;SHT31;64036;48.266;14.192;2022-10-10T08:34:14;27.70;33.67
75457;SHT31;64036;48.266;14.192;2022-10-10T08:36:40;27.82;33.95
75457;SHT31;64036;48.266;14.192;2022-10-10T08:39:05;27.83;33.36
75457;SHT31;64036;48.266;14.192;2022-10-10T08:42:04;27.84;33.10
75457;SHT31;64036;48.266;14.192;2022-10-10T08:44:34;28.05;33.74
75457;SHT31;64036;48.266;14.192;2022-10-10T08:47:06;28.08;32.71
75457;SHT31;64036;48.266;14.192;2022-10-10T08:49:41;27.86;32.73
75457;SHT31;64036;48.266;14.192;2022-10-10T08:52:27;27.83;33.38
75457;SHT31;64036;48.266;14.192;2022-10-10T08:54:58;27.76;33.76
75457;SHT31;64036;48.266;14.192;2022-10-10T08:57:34;27.67;33.21
75457;SHT31;64036;48.266;14.192;2022-10-10T09:00:17;27.82;33.80
75457;SHT31;64036;48.266;14.192;2022-10-10T09:05:18;28.04;32.60
75457;SHT31;64036;48.266;14.192;2022-10-10T09:11:04;28.16;33.06
75457;SHT31;64036;48.266;14.192;2022-10-10T09:19:14;28.18;32.82
75457;SHT31;64036;48.266;14.192;2022-10-10T09:21:54;27.79;32.98
75457;SHT31;64036;48.266;14.192;2022-10-10T09:24:32;27.73;32.38
75457;SHT31;64036;48.266;14.192;2022-10-10T09:27:05;27.75;32.04
75457;SHT31;64036;48.266;14.192;2022-10-10T09:32:25;27.63;33.09
75457;SHT31;64036;48.266;14.192;2022-10-10T09:37:50;26.92;33.27
75457;SHT31;64036;48.266;14.192;2022-10-10T09:40:38;26.72;33.94
75457;SHT31;64036;48.266;14.192;2022-10-10T09:43:14;26.47;33.91
75457;SHT31;64036;48.266;14.192;2022-10-10T09:48:16;26.06;34.82
75457;SHT31;64036;48.266;14.192;2022-10-10T09:50:43;25.88;35.44
75457;SHT31;64036;48.266;14.192;2022-10-10T09:53:13;25.73;35.83
75457;SHT31;64036;48.266;14.192;2022-10-10T09:55:40;25.60;36.24
75457;SHT31;64036;48.266;14.192;2022-10-10T09:58:26;25.43;36.46
75457;SHT31;64036;48.266;14.192;2022-10-10T10:04:08;25.42;38.02
75457;SHT31;64036;48.266;14.192;2022-10-10T10:06:43;25.24;37.94
75457;SHT31;64036;48.266;14.192;2022-10-10T10:09:15;25.06;38.26
75457;SHT31;64036;48.266;14.192;2022-10-10T10:11:45;24.73;38.62
75457;SHT31;64036;48.266;14.192;2022-10-10T10:14:24;24.32;38.82
75457;SHT31;64036;48.266;14.192;2022-10-10T10:16:54;24.21;38.91
75457;SHT31;64036;48.266;14.192;2022-10-10T10:19:31;24.16;39.33
75457;SHT31;64036;48.266;14.192;2022-10-10T10:22:04;24.13;40.57
75457;SHT31;64036;48.266;14.192;2022-10-10T10:24:47;23.99;40.26
75457;SHT31;64036;48.266;14.192;2022-10-10T10:27:17;24.10;40.45
75457;SHT31;64036;48.266;14.192;2022-10-10T10:29:46;24.31;40.25
75457;SHT31;64036;48.266;14.192;2022-10-10T10:35:07;24.09;39.69
75457;SHT31;64036;48.266;14.192;2022-10-10T10:38:02;23.93;40.70
75457;SHT31;64036;48.266;14.192;2022-10-10T10:46:03;24.20;40.44
75457;SHT31;64036;48.266;14.192;2022-10-10T10:48:40;24.12;41.69
75457;SHT31;64036;48.266;14.192;2022-10-10T10:57:01;23.86;40.84
75457;SHT31;64036;48.266;14.192;2022-10-10T11:08:00;23.61;41.77
75457;SHT31;64036;48.266;14.192;2022-10-10T11:16:51;23.41;42.11
75457;SHT31;64036;48.266;14.192;2022-10-10T11:22:10;23.84;42.38
75457;SHT31;64036;48.266;14.192;2022-10-10T11:27:27;23.50;42.43
75457;SHT31;64036;48.266;14.192;2022-10-10T11:41:00;23.99;42.54
75457;SHT31;64036;48.266;14.192;2022-10-10T11:43:39;24.08;42.35
75457;SHT31;64036;48.266;14.192;2022-10-10T11:46:15;24.03;43.33
75457;SHT31;64036;48.266;14.192;2022-10-10T11:49:05;24.02;43.22
75457;SHT31;64036;48.266;14.192;2022-10-10T11:54:24;23.99;43.40
75457;SHT31;64036;48.266;14.192;2022-10-10T11:57:51;23.94;43.94
75457;SHT31;64036;48.266;14.192;2022-10-10T12:00:18;24.05;42.89
75457;SHT31;64036;48.266;14.192;2022-10-10T12:02:44;23.77;42.39
75457;SHT31;64036;48.266;14.192;2022-10-10T12:05:30;23.53;43.37
75457;SHT31;64036;48.266;14.192;2022-10-10T12:08:22;23.40;43.83
75457;SHT31;64036;48.266;14.192;2022-10-10T12:13:54;23.49;43.47
75457;SHT31;64036;48.266;14.192;2022-10-10T12:16:25;23.50;43.56
75457;SHT31;64036;48.266;14.192;2022-10-10T12:18:54;23.44;44.17
75457;SHT31;64036;48.266;14.192;2022-10-10T12:21:26;23.46;44.81
75457;SHT31;64036;48.266;14.192;2022-10-10T12:24:04;23.38;44.06
75457;SHT31;64036;48.266;14.192;2022-10-10T12:38:13;23.38;44.08
75457;SHT31;64036;48.266;14.192;2022-10-10T12:41:07;23.34;44.45
75457;SHT31;64036;48.266;14.192;2022-10-10T12:43:41;23.45;45.06
75457;SHT31;64036;48.266;14.192;2022-10-10T12:46:16;23.52;45.63
75457;SHT31;64036;48.266;14.192;2022-10-10T12:48:56;23.30;46.11
75457;SHT31;64036;48.266;14.192;2022-10-10T12:51:28;23.17;45.60
75457;SHT31;64036;48.266;14.192;2022-10-10T12:53:58;23.09;45.88
75457;SHT31;64036;48.266;14.192;2022-10-10T12:59:00;23.15;44.91
75457;SHT31;64036;48.266;14.192;2022-10-10T13:01:28;22.96;44.43
75457;SHT31;64036;48.266;14.192;2022-10-10T13:03:57;22.86;45.17
75457;SHT31;64036;48.266;14.192;2022-10-10T13:09:06;22.87;45.51
75457;SHT31;64036;48.266;14.192;2022-10-10T13:11:54;22.83;45.66
75457;SHT31;64036;48.266;14.192;2022-10-10T13:14:25;22.72;45.78
75457;SHT31;64036;48.266;14.192;2022-10-10T13:17:02;22.53;46.26
75457;SHT31;64036;48.266;14.192;2022-10-10T13:19:42;22.40;46.77
75457;SHT31;64036;48.266;14.192;2022-10-10T13:22:08;22.31;47.05
75457;SHT31;64036;48.266;14.192;2022-10-10T13:24:33;22.22;47.32
75457;SHT31;64036;48.266;14.192;2022-10-10T13:26:59;22.13;47.53
75457;SHT31;64036;48.266;14.192;2022-10-10T13:32:00;21.81;47.74
75457;SHT31;64036;48.266;14.192;2022-10-10T13:34:31;21.64;48.11
75457;SHT31;64036;48.266;14.192;2022-10-10T13:37:01;21.52;48.50
75457;SHT31;64036;48.266;14.192;2022-10-10T13:39:31;21.47;48.43
75457;SHT31;64036;48.266;14.192;2022-10-10T13:42:01;21.47;49.05
75457;SHT31;64036;48.266;14.192;2022-10-10T13:44:31;21.59;49.27
75457;SHT31;64036;48.266;14.192;2022-10-10T13:50:28;21.85;49.03
75457;SHT31;64036;48.266;14.192;2022-10-10T13:58:56;21.87;49.28
75457;SHT31;64036;48.266;14.192;2022-10-10T14:03:51;22.09;48.95
75457;SHT31;64036;48.266;14.192;2022-10-10T14:06:24;22.25;48.79
75457;SHT31;64036;48.266;14.192;2022-10-10T14:08:52;22.33;48.31
75457;SHT31;64036;48.266;14.192;2022-10-10T14:11:22;22.34;48.56
75457;SHT31;64036;48.266;14.192;2022-10-10T14:13:56;22.33;48.14
75457;SHT31;64036;48.266;14.192;2022-10-10T14:16:31;22.35;48.88
75457;SHT31;64036;48.266;14.192;2022-10-10T14:18:56;22.33;49.13
75457;SHT31;64036;48.266;14.192;2022-10-10T14:21:22;22.31;49.40
75457;SHT31;64036;48.266;14.192;2022-10-10T14:23:48;22.36;48.98
75457;SHT31;64036;48.266;14.192;2022-10-10T14:26:14;22.29;49.31
75457;SHT31;64036;48.266;14.192;2022-10-10T14:28:42;22.20;49.30
75457;SHT31;64036;48.266;14.192;2022-10-10T14:31:09;22.11;49.77
75457;SHT31;64036;48.266;14.192;2022-10-10T14:33:36;22.00;50.97
75457;SHT31;64036;48.266;14.192;2022-10-10T14:36:03;21.89;51.10
75457;SHT31;64036;48.266;14.192;2022-10-10T14:38:29;21.76;50.89
75457;SHT31;64036;48.266;14.192;2022-10-10T14:40:56;21.76;50.28
75457;SHT31;64036;48.266;14.192;2022-10-10T14:43:21;21.81;49.79
75457;SHT31;64036;48.266;14.192;2022-10-10T14:45:49;21.77;50.17
75457;SHT31;64036;48.266;14.192;2022-10-10T14:48:16;21.71;51.21
75457;SHT31;64036;48.266;14.192;2022-10-10T14:50:43;21.67;51.58
75457;SHT31;64036;48.266;14.192;2022-10-10T14:53:11;21.56;50.83
75457;SHT31;64036;48.266;14.192;2022-10-10T14:55:40;21.46;51.32
75457;SHT31;64036;48.266;14.192;2022-10-10T14:58:14;21.38;51.46
75457;SHT31;64036;48.266;14.192;2022-10-10T15:00:45;21.28;51.66
75457;SHT31;64036;48.266;14.192;2022-10-10T15:03:12;21.21;52.30
75457;SHT31;64036;48.266;14.192;2022-10-10T15:05:38;21.18;52.71
75457;SHT31;64036;48.266;14.192;2022-10-10T15:08:05;21.18;52.61
75457;SHT31;64036;48.266;14.192;2022-10-10T15:10:31;21.17;52.61
75457;SHT31;64036;48.266;14.192;2022-10-10T15:12:57;21.08;53.25
75457;SHT31;64036;48.266;14.192;2022-10-10T15:15:22;20.93;53.37
75457;SHT31;64036;48.266;14.192;2022-10-10T15:17:48;20.81;54.10
75457;SHT31;64036;48.266;14.192;2022-10-10T15:20:14;20.79;53.44
75457;SHT31;64036;48.266;14.192;2022-10-10T15:22:40;20.82;53.17
75457;SHT31;64036;48.266;14.192;2022-10-10T15:25:06;20.77;53.92
75457;SHT31;64036;48.266;14.192;2022-10-10T15:27:34;20.72;54.07
75457;SHT31;64036;48.266;14.192;2022-10-10T15:30:01;20.59;54.70
75457;SHT31;64036;48.266;14.192;2022-10-10T15:32:27;20.47;54.74
75457;SHT31;64036;48.266;14.192;2022-10-10T15:34:52;20.37;54.92
75457;SHT31;64036;48.266;14.192;2022-10-10T15:37:18;20.32;55.11
75457;SHT31;64036;48.266;14.192;2022-10-10T15:39:44;20.30;54.95
75457;SHT31;64036;48.266;14.192;2022-10-10T15:42:10;20.23;55.35
75457;SHT31;64036;48.266;14.192;2022-10-10T15:44:37;20.12;56.27
75457;SHT31;64036;48.266;14.192;2022-10-10T15:47:09;20.01;57.01
75457;SHT31;64036;48.266;14.192;2022-10-10T15:49:39;19.89;57.27
75457;SHT31;64036;48.266;14.192;2022-10-10T15:52:05;19.78;57.45
75457;SHT31;64036;48.266;14.192;2022-10-10T15:54:32;19.70;57.33
75457;SHT31;64036;48.266;14.192;2022-10-10T15:56:57;19.64;57.62
75457;SHT31;64036;48.266;14.192;2022-10-10T15:59:23;19.53;58.02
75457;SHT31;64036;48.266;14.192;2022-10-10T16:01:49;19.40;58.32
75457;SHT31;64036;48.266;14.192;2022-10-10T16:04:14;19.27;58.78
75457;SHT31;64036;48.266;14.192;2022-10-10T16:06:40;19.16;58.84
75457;SHT31;64036;48.266;14.192;2022-10-10T16:09:05;19.03;59.11
75457;SHT31;64036;48.266;14.192;2022-10-10T16:11:31;18.90;59.29
75457;SHT31;64036;48.266;14.192;2022-10-10T16:13:57;18.80;59.33
75457;SHT31;64036;48.266;14.192;2022-10-10T16:16:23;18.69;59.50
75457;SHT31;64036;48.266;14.192;2022-10-10T16:18:49;18.58;59.77
75457;SHT31;64036;48.266;14.192;2022-10-10T16:21:18;18.46;60.02
75457;SHT31;64036;48.266;14.192;2022-10-10T16:23:46;18.35;60.29
75457;SHT31;64036;48.266;14.192;2022-10-10T16:26:15;18.26;60.66
75457;SHT31;64036;48.266;14.192;2022-10-10T16:28:44;18.10;61.07
75457;SHT31;64036;48.266;14.192;2022-10-10T16:31:10;17.98;61.50
75457;SHT31;64036;48.266;14.192;2022-10-10T16:33:39;17.87;61.86
75457;SHT31;64036;48.266;14.192;2022-10-10T16:36:16;17.77;62.10
75457;SHT31;64036;48.266;14.192;2022-10-10T16:38:45;17.66;62.44
75457;SHT31;64036;48.266;14.192;2022-10-10T16:41:12;17.55;62.64
75457;SHT31;64036;48.266;14.192;2022-10-10T16:43:41;17.47;62.84
75457;SHT31;64036;48.266;14.192;2022-10-10T16:46:10;17.40;63.16
75457;SHT31;64036;48.266;14.192;2022-10-10T16:48:39;17.30;63.63
75457;SHT31;64036;48.266;14.192;2022-10-10T16:51:06;17.21;63.85
75457;SHT31;64036;48.266;14.192;2022-10-10T16:53:37;17.14;64.39
75457;SHT31;64036;48.266;14.192;2022-10-10T16:56:04;17.02;64.88
75457;SHT31;64036;48.266;14.192;2022-10-10T16:58:33;16.89;65.11
75457;SHT31;64036;48.266;14.192;2022-10-10T17:01:01;16.77;65.26
75457;SHT31;64036;48.266;14.192;2022-10-10T17:03:26;16.68;65.43
75457;SHT31;64036;48.266;14.192;2022-10-10T17:06:02;16.59;65.91
75457;SHT31;64036;48.266;14.192;2022-10-10T17:08:30;16.52;66.17
75457;SHT31;64036;48.266;14.192;2022-10-10T17:10:57;16.48;66.32
75457;SHT31;64036;48.266;14.192;2022-10-10T17:13:24;16.44;66.54
75457;SHT31;64036;48.266;14.192;2022-10-10T17:15:50;16.43;66.80
75457;SHT31;64036;48.266;14.192;2022-10-10T17:18:16;16.42;66.91
75457;SHT31;64036;48.266;14.192;2022-10-10T17:20:43;16.41;66.81
75457;SHT31;64036;48.266;14.192;2022-10-10T17:23:10;16.42;66.80
75457;SHT31;64036;48.266;14.192;2022-10-10T17:25:44;16.42;66.61
75457;SHT31;64036;48.266;14.192;2022-10-10T17:28:11;16.43;66.33
75457;SHT31;64036;48.266;14.192;2022-10-10T17:30:45;16.42;66.15
75457;SHT31;64036;48.266;14.192;2022-10-10T17:33:13;16.43;66.10
75457;SHT31;64036;48.266;14.192;2022-10-10T17:35:42;16.44;66.17
75457;SHT31;64036;48.266;14.192;2022-10-10T17:38:15;16.42;66.45
75457;SHT31;64036;48.266;14.192;2022-10-10T17:40:43;16.42;66.65
75457;SHT31;64036;48.266;14.192;2022-10-10T17:43:10;16.40;66.86